Time;durP1;ratioP1;P1;durP2;ratioP2;P2;SDS_P1;SDS_P2;PMS_P1;PMS_P2;Temp;Humidity;BMP_temperature;BMP_pressure;BME280_temperature;BME280_humidity;BME280_pressure;Samples;Min_cycle;Max_cycle;Signal;HPM_P1;HPM_P2
2021/08/06 00:00:41;;;;;;;4.9;4.2;;;;;;;20.3;59.6;99970;;;;
2021/08/06 00:02:41;;;;;;;4.9;4.2;;;;;;;20.4;59.4;99970;;;;
2021/08/06 00:04:40;;;;;;;4.7;4.3;;;;;;;20.2;60.1;99960;;;;
2021/08/06 00:20:41;;;;;;;4.7;4.3;;;;;;;20.3;60.2;99950;;;;
2021/08/06 00:22:41;;;;;;;4.7;4.3;;;;;;;20.4;59.1;99950;;;;
2021/08/06 00:24:40;;;;;;;5.3;4.8;;;;;;;20.3;60.4;99950;;;;
2021/08/06 00:26:40;;;;;;;5.3;4.8;;;;;;;20.4;59.1;99940;;;;
2021/08/06 00:30:41;;;;;;;5.3;4.8;;;;;;;20.2;60.6;99940;;;;
2021/08/06 00:32:40;;;;;;;5.3;4.8;;;;;;;20.4;59.3;99940;;;;
2021/08/06 00:42:40;;;;;;;5.0;4.5;;;;;;;20.5;59.4;99940;;;;
2021/08/06 00:46:40;;;;;;;5.0;4.5;;;;;;;20.3;61.6;99940;;;;
2021/08/06 00:48:41;;;;;;;5.0;4.5;;;;;;;20.2;61.3;99930;;;;
2021/08/06 00:50:41;;;;;;;5.0;4.5;;;;;;;20.1;61.7;99940;;;;
2021/08/06 00:54:40;;;;;;;5.0;4.5;;;;;;;20.0;61.8;99940;;;;
2021/08/06 00:56:40;;;;;;;5.0;4.5;;;;;;;20.1;62.4;99930;;;;
2021/08/06 00:58:41;;;;;;;5.0;4.5;;;;;;;20.2;61.1;99930;;;;
2021/08/06 01:00:41;;;;;;;5.0;4.5;;;;;;;20.1;61.5;99930;;;;
2021/08/06 01:04:41;;;;;;;5.3;4.8;;;;;;;20.2;61.4;99930;;;;
2021/08/06 01:06:40;;;;;;;5.3;4.8;;;;;;;20.1;60.4;99930;;;;
2021/08/06 01:12:41;;;;;;;5.3;4.8;;;;;;;20.2;61.8;99920;;;;
2021/08/06 01:14:41;;;;;;;5.3;4.8;;;;;;;20.1;61.2;99920;;;;
2021/08/06 01:18:40;;;;;;;5.3;4.8;;;;;;;20.0;62.0;99920;;;;
2021/08/06 01:22:41;;;;;;;4.8;4.4;;;;;;;20.3;60.0;99920;;;;
2021/08/06 01:24:41;;;;;;;4.8;4.4;;;;;;;20.0;61.9;99920;;;;
2021/08/06 01:26:41;;;;;;;4.8;4.4;;;;;;;19.9;62.2;99920;;;;
2021/08/06 01:28:41;;;;;;;4.8;4.4;;;;;;;20.0;61.9;99920;;;;
2021/08/06 01:32:41;;;;;;;4.8;4.4;;;;;;;19.9;62.8;99930;;;;
2021/08/06 01:34:41;;;;;;;4.8;4.4;;;;;;;19.8;62.6;99920;;;;
2021/08/06 01:38:41;;;;;;;4.8;4.4;;;;;;;19.9;62.1;99910;;;;
2021/08/06 01:40:40;;;;;;;4.8;4.4;;;;;;;19.8;61.6;99910;;;;
2021/08/06 01:42:40;;;;;;;3.9;3.5;;;;;;;20.1;60.0;99900;;;;
2021/08/06 01:44:40;;;;;;;3.9;3.5;;;;;;;20.0;61.4;99900;;;;
2021/08/06 01:46:41;;;;;;;3.9;3.5;;;;;;;19.9;62.0;99910;;;;
2021/08/06 01:48:41;;;;;;;3.9;3.5;;;;;;;19.8;61.1;99900;;;;
2021/08/06 01:50:40;;;;;;;3.9;3.5;;;;;;;19.7;61.4;99900;;;;
2021/08/06 01:54:40;;;;;;;3.9;3.5;;;;;;;19.6;62.9;99900;;;;
2021/08/06 01:56:41;;;;;;;3.9;3.5;;;;;;;19.5;63.4;99910;;;;
2021/08/06 02:00:41;;;;;;;3.9;3.5;;;;;;;19.4;63.4;99900;;;;
2021/08/06 02:02:41;;;;;;;4.4;4.0;;;;;;;19.6;62.8;99900;;;;
2021/08/06 02:04:41;;;;;;;4.4;4.0;;;;;;;19.5;62.5;99890;;;;
2021/08/06 02:06:40;;;;;;;4.4;4.0;;;;;;;19.6;62.2;99890;;;;
2021/08/06 02:16:41;;;;;;;4.4;4.0;;;;;;;19.5;62.0;99870;;;;
2021/08/06 02:18:41;;;;;;;4.4;4.0;;;;;;;19.6;62.5;99870;;;;
2021/08/06 02:43:59;;;;;;;4.1;3.3;;;;;;;19.4;63.5;99850;;;;
2021/08/06 02:49:59;;;;;;;4.1;3.3;;;;;;;19.6;62.3;99850;;;;
2021/08/06 02:53:59;;;;;;;4.1;3.3;;;;;;;19.7;61.4;99850;;;;
2021/08/06 02:59:59;;;;;;;4.1;3.3;;;;;;;19.6;62.3;99850;;;;
2021/08/06 03:03:59;;;;;;;5.4;3.2;;;;;;;19.7;62.4;99840;;;;
2021/08/06 03:07:59;;;;;;;5.4;3.2;;;;;;;19.6;62.0;99840;;;;
2021/08/06 03:11:59;;;;;;;5.4;3.2;;;;;;;19.5;63.4;99840;;;;
2021/08/06 03:15:59;;;;;;;5.4;3.2;;;;;;;19.4;63.5;99840;;;;
2021/08/06 03:17:59;;;;;;;5.4;3.2;;;;;;;19.5;63.2;99830;;;;
2021/08/06 03:19:59;;;;;;;5.4;3.2;;;;;;;19.4;63.5;99840;;;;
2021/08/06 03:21:59;;;;;;;5.4;3.2;;;;;;;19.5;63.2;99840;;;;
2021/08/06 03:23:59;;;;;;;2.9;2.6;;;;;;;19.6;62.6;99840;;;;
2021/08/06 03:25:59;;;;;;;2.9;2.6;;;;;;;19.5;62.8;99840;;;;
2021/08/06 03:27:59;;;;;;;2.9;2.6;;;;;;;19.4;63.9;99840;;;;
2021/08/06 03:31:59;;;;;;;2.9;2.6;;;;;;;19.1;65.5;99850;;;;
2021/08/06 03:33:59;;;;;;;2.9;2.6;;;;;;;19.4;63.0;99850;;;;
2021/08/06 03:35:59;;;;;;;2.9;2.6;;;;;;;19.3;65.2;99840;;;;
2021/08/06 03:37:59;;;;;;;2.9;2.6;;;;;;;19.2;65.6;99840;;;;
2021/08/06 03:39:59;;;;;;;2.9;2.6;;;;;;;19.1;65.1;99850;;;;
2021/08/06 03:41:59;;;;;;;2.9;2.6;;;;;;;19.2;65.3;99850;;;;
2021/08/06 03:47:59;;;;;;;4.3;2.3;;;;;;;19.1;65.8;99840;;;;
2021/08/06 03:49:59;;;;;;;4.3;2.3;;;;;;;19.0;67.0;99840;;;;
2021/08/06 03:51:59;;;;;;;4.3;2.3;;;;;;;19.1;66.2;99840;;;;
2021/08/06 03:53:59;;;;;;;4.3;2.3;;;;;;;19.2;65.2;99840;;;;
2021/08/06 03:57:59;;;;;;;4.3;2.3;;;;;;;19.1;67.0;99830;;;;
2021/08/06 03:59:59;;;;;;;4.3;2.3;;;;;;;19.2;65.3;99830;;;;
2021/08/06 04:01:59;;;;;;;4.3;2.3;;;;;;;19.1;67.5;99840;;;;
2021/08/06 04:03:59;;;;;;;2.4;2.2;;;;;;;19.0;67.7;99830;;;;
2021/08/06 04:05:59;;;;;;;2.4;2.2;;;;;;;19.1;65.8;99830;;;;
2021/08/06 04:07:59;;;;;;;2.4;2.2;;;;;;;19.0;66.4;99830;;;;
2021/08/06 04:09:59;;;;;;;2.4;2.2;;;;;;;19.1;66.0;99830;;;;
2021/08/06 04:15:59;;;;;;;2.4;2.2;;;;;;;19.2;65.8;99830;;;;
2021/08/06 04:17:59;;;;;;;2.4;2.2;;;;;;;19.1;67.5;99840;;;;
2021/08/06 04:19:59;;;;;;;2.4;2.2;;;;;;;19.0;66.2;99830;;;;
2021/08/06 04:21:59;;;;;;;2.4;2.2;;;;;;;19.2;64.7;99830;;;;
2021/08/06 04:23:59;;;;;;;3.9;2.4;;;;;;;19.1;66.7;99830;;;;
2021/08/06 04:39:59;;;;;;;3.9;2.4;;;;;;;19.0;67.9;99830;;;;
2021/08/06 04:41:59;;;;;;;3.9;2.4;;;;;;;19.1;65.8;99840;;;;
2021/08/06 04:43:59;;;;;;;2.3;2.1;;;;;;;19.0;68.3;99840;;;;
2021/08/06 04:45:59;;;;;;;2.3;2.1;;;;;;;18.9;68.4;99840;;;;
2021/08/06 04:49:59;;;;;;;2.3;2.1;;;;;;;18.8;68.4;99840;;;;
2021/08/06 04:55:59;;;;;;;2.3;2.1;;;;;;;18.6;71.3;99840;;;;
2021/08/06 04:59:59;;;;;;;2.3;2.1;;;;;;;18.7;71.2;99840;;;;
2021/08/06 05:07:59;;;;;;;3.2;2.2;;;;;;;18.6;71.3;99840;;;;
2021/08/06 05:09:59;;;;;;;3.2;2.2;;;;;;;18.5;72.2;99840;;;;
2021/08/06 05:11:59;;;;;;;3.2;2.2;;;;;;;18.6;70.7;99840;;;;
2021/08/06 05:15:59;;;;;;;3.2;2.2;;;;;;;18.5;72.4;99840;;;;
2021/08/06 05:17:59;;;;;;;3.2;2.2;;;;;;;18.6;70.9;99840;;;;
2021/08/06 05:20:01;;;;;;;3.2;2.2;;;;;;;18.5;71.6;99840;;;;
2021/08/06 05:21:59;;;;;;;3.2;2.2;;;;;;;18.4;74.1;99840;;;;
2021/08/06 05:23:59;;;;;;;2.5;2.3;;;;;;;18.5;73.3;99840;;;;
2021/08/06 05:25:59;;;;;;;2.5;2.3;;;;;;;18.4;73.2;99850;;;;
2021/08/06 05:27:59;;;;;;;2.5;2.3;;;;;;;18.5;72.3;99850;;;;
2021/08/06 05:31:59;;;;;;;2.5;2.3;;;;;;;18.7;72.1;99840;;;;
2021/08/06 05:33:59;;;;;;;2.5;2.3;;;;;;;18.6;73.1;99840;;;;
2021/08/06 05:35:59;;;;;;;2.5;2.3;;;;;;;18.5;73.3;99840;;;;
2021/08/06 05:37:59;;;;;;;2.5;2.3;;;;;;;18.7;72.2;99840;;;;
2021/08/06 05:39:59;;;;;;;2.5;2.3;;;;;;;18.6;72.2;99840;;;;
2021/08/06 05:41:59;;;;;;;2.5;2.3;;;;;;;18.7;72.5;99840;;;;
2021/08/06 05:43:59;;;;;;;2.7;2.5;;;;;;;18.6;73.3;99840;;;;
2021/08/06 05:45:59;;;;;;;2.7;2.5;;;;;;;18.7;71.8;99840;;;;
2021/08/06 05:48:03;;;;;;;2.7;2.5;;;;;;;18.8;73.3;99840;;;;
2021/08/06 05:49:59;;;;;;;2.7;2.5;;;;;;;18.6;73.5;99850;;;;
2021/08/06 05:51:59;;;;;;;2.7;2.5;;;;;;;18.7;72.8;99850;;;;
2021/08/06 05:54:01;;;;;;;2.7;2.5;;;;;;;18.6;74.8;99850;;;;
2021/08/06 05:57:59;;;;;;;2.7;2.5;;;;;;;18.7;74.4;99860;;;;
2021/08/06 05:59:59;;;;;;;2.7;2.5;;;;;;;18.6;75.2;99860;;;;
2021/08/06 06:01:59;;;;;;;2.7;2.5;;;;;;;18.8;72.9;99870;;;;
2021/08/06 06:03:59;;;;;;;2.6;2.4;;;;;;;18.6;73.7;99870;;;;
2021/08/06 06:05:59;;;;;;;2.6;2.4;;;;;;;18.7;74.0;99870;;;;
2021/08/06 06:07:59;;;;;;;2.6;2.4;;;;;;;18.8;72.5;99860;;;;
2021/08/06 06:11:59;;;;;;;2.6;2.4;;;;;;;18.9;73.1;99870;;;;
2021/08/06 06:14:00;;;;;;;2.6;2.4;;;;;;;19.0;72.8;99870;;;;
2021/08/06 06:19:59;;;;;;;2.6;2.4;;;;;;;18.9;73.7;99880;;;;
2021/08/06 06:21:59;;;;;;;2.6;2.4;;;;;;;19.0;73.1;99880;;;;
2021/08/06 06:23:59;;;;;;;3.6;3.3;;;;;;;19.1;72.5;99880;;;;
2021/08/06 06:25:59;;;;;;;3.6;3.3;;;;;;;19.0;72.2;99880;;;;
2021/08/06 06:27:59;;;;;;;3.6;3.3;;;;;;;18.9;72.9;99880;;;;
2021/08/06 06:29:59;;;;;;;3.6;3.3;;;;;;;19.0;72.3;99890;;;;
2021/08/06 06:43:59;;;;;;;4.3;4.0;;;;;;;19.1;72.4;99890;;;;
2021/08/06 06:49:59;;;;;;;4.3;4.0;;;;;;;19.2;71.9;99900;;;;
2021/08/06 06:55:59;;;;;;;4.3;4.0;;;;;;;19.4;72.2;99910;;;;
2021/08/06 06:57:59;;;;;;;4.3;4.0;;;;;;;19.3;72.6;99900;;;;
2021/08/06 07:01:59;;;;;;;4.2;3.9;;;;;;;19.4;73.0;99910;;;;
2021/08/06 07:03:59;;;;;;;4.2;3.9;;;;;;;19.3;73.8;99910;;;;
2021/08/06 07:11:59;;;;;;;4.2;3.9;;;;;;;19.3;71.8;99920;;;;
2021/08/06 07:15:59;;;;;;;4.2;3.9;;;;;;;19.4;71.4;99920;;;;
2021/08/06 07:27:59;;;;;;;4.5;4.1;;;;;;;19.5;71.0;99930;;;;
2021/08/06 07:29:59;;;;;;;4.5;4.1;;;;;;;19.4;71.9;99930;;;;
2021/08/06 07:31:59;;;;;;;4.5;4.1;;;;;;;19.3;72.5;99930;;;;
2021/08/06 07:39:59;;;;;;;4.5;4.1;;;;;;;19.4;72.1;99940;;;;
2021/08/06 07:41:59;;;;;;;4.2;3.1;;;;;;;19.5;71.7;99940;;;;
2021/08/06 07:49:59;;;;;;;4.2;3.1;;;;;;;19.7;70.2;99940;;;;
2021/08/06 07:51:59;;;;;;;4.2;3.1;;;;;;;19.8;70.7;99940;;;;
2021/08/06 07:54:00;;;;;;;4.2;3.1;;;;;;;20.0;70.3;99940;;;;
2021/08/06 07:55:59;;;;;;;4.2;3.1;;;;;;;19.9;70.4;99940;;;;
2021/08/06 08:03:59;;;;;;;4.2;3.8;;;;;;;20.0;69.2;99940;;;;
2021/08/06 08:06:00;;;;;;;4.2;3.8;;;;;;;20.1;68.0;99950;;;;
2021/08/06 08:11:59;;;;;;;4.2;3.8;;;;;;;19.9;69.1;99960;;;;
2021/08/06 08:13:59;;;;;;;4.2;3.8;;;;;;;20.0;68.9;99960;;;;
2021/08/06 08:15:59;;;;;;;4.2;3.8;;;;;;;19.9;68.2;99960;;;;
2021/08/06 08:19:59;;;;;;;4.2;3.8;;;;;;;20.0;68.1;99950;;;;
2021/08/06 08:21:59;;;;;;;6.0;3.7;;;;;;;20.1;67.9;99950;;;;
2021/08/06 08:23:59;;;;;;;6.0;3.7;;;;;;;20.2;68.4;99960;;;;
2021/08/06 08:25:59;;;;;;;6.0;3.7;;;;;;;20.3;67.1;99960;;;;
2021/08/06 08:27:59;;;;;;;6.0;3.7;;;;;;;20.5;66.8;99950;;;;
2021/08/06 08:31:59;;;;;;;6.0;3.7;;;;;;;20.6;66.5;99950;;;;
2021/08/06 08:37:59;;;;;;;6.0;3.7;;;;;;;20.9;65.1;99960;;;;
2021/08/06 08:39:59;;;;;;;6.0;3.7;;;;;;;20.8;64.8;99950;;;;
2021/08/06 08:43:59;;;;;;;4.3;3.1;;;;;;;20.9;64.6;99960;;;;
2021/08/06 08:47:59;;;;;;;4.3;3.1;;;;;;;21.0;64.7;99960;;;;
2021/08/06 08:49:59;;;;;;;4.3;3.1;;;;;;;20.9;65.3;99950;;;;
2021/08/06 08:51:59;;;;;;;4.3;3.1;;;;;;;21.0;64.9;99950;;;;
2021/08/06 08:54:00;;;;;;;4.3;3.1;;;;;;;21.1;64.7;99950;;;;
2021/08/06 08:55:59;;;;;;;4.3;3.1;;;;;;;21.2;63.2;99940;;;;
2021/08/06 08:59:59;;;;;;;4.3;3.1;;;;;;;21.3;62.7;99950;;;;
2021/08/06 09:01:59;;;;;;;5.4;2.7;;;;;;;21.2;63.1;99950;;;;
2021/08/06 09:03:59;;;;;;;5.4;2.7;;;;;;;21.1;62.6;99960;;;;
2021/08/06 09:07:59;;;;;;;5.4;2.7;;;;;;;21.2;62.2;99950;;;;
2021/08/06 09:10:04;;;;;;;5.4;2.7;;;;;;;21.1;61.7;99950;;;;
2021/08/06 09:13:59;;;;;;;5.4;2.7;;;;;;;21.2;61.5;99950;;;;
2021/08/06 09:15:59;;;;;;;5.4;2.7;;;;;;;21.1;61.3;99950;;;;
2021/08/06 09:17:59;;;;;;;5.4;2.7;;;;;;;21.4;61.8;99940;;;;
2021/08/06 09:20:00;;;;;;;5.4;2.7;;;;;;;21.5;61.3;99950;;;;
2021/08/06 09:27:59;;;;;;;4.3;2.7;;;;;;;21.8;60.7;99950;;;;
2021/08/06 09:29:59;;;;;;;4.3;2.7;;;;;;;21.9;60.2;99960;;;;
2021/08/06 09:32:00;;;;;;;4.3;2.7;;;;;;;21.7;60.1;99960;;;;
2021/08/06 09:33:59;;;;;;;4.3;2.7;;;;;;;21.8;60.3;99960;;;;
2021/08/06 09:37:59;;;;;;;4.3;2.7;;;;;;;21.7;59.7;99960;;;;
2021/08/06 09:39:59;;;;;;;4.3;2.7;;;;;;;21.6;59.9;99960;;;;
2021/08/06 09:41:59;;;;;;;3.9;2.5;;;;;;;21.7;59.9;99960;;;;
2021/08/06 09:43:59;;;;;;;3.9;2.5;;;;;;;21.9;60.1;99960;;;;
2021/08/06 09:45:59;;;;;;;3.9;2.5;;;;;;;21.8;60.3;99950;;;;
2021/08/06 09:47:59;;;;;;;3.9;2.5;;;;;;;22.1;59.3;99950;;;;
2021/08/06 09:49:59;;;;;;;3.9;2.5;;;;;;;22.2;58.9;99950;;;;
2021/08/06 09:51:59;;;;;;;3.9;2.5;;;;;;;22.0;59.2;99960;;;;
2021/08/06 09:53:59;;;;;;;3.9;2.5;;;;;;;22.1;58.4;99950;;;;
2021/08/06 09:55:59;;;;;;;3.9;2.5;;;;;;;22.2;59.0;99960;;;;
2021/08/06 09:59:59;;;;;;;3.9;2.5;;;;;;;22.3;58.9;99960;;;;
2021/08/06 10:01:59;;;;;;;2.8;2.4;;;;;;;22.5;58.4;99970;;;;
2021/08/06 10:04:01;;;;;;;2.8;2.4;;;;;;;22.4;57.7;99960;;;;
2021/08/06 10:05:59;;;;;;;2.8;2.4;;;;;;;22.5;58.0;99970;;;;
2021/08/06 10:08:01;;;;;;;2.8;2.4;;;;;;;22.6;57.1;99960;;;;
2021/08/06 10:11:59;;;;;;;2.8;2.4;;;;;;;22.3;55.2;99970;;;;
2021/08/06 10:13:59;;;;;;;2.8;2.4;;;;;;;22.4;55.8;99960;;;;
2021/08/06 10:15:59;;;;;;;2.8;2.4;;;;;;;22.6;55.9;99970;;;;
2021/08/06 10:17:59;;;;;;;2.8;2.4;;;;;;;22.5;56.1;99960;;;;
2021/08/06 10:19:59;;;;;;;2.8;2.4;;;;;;;22.7;55.3;99960;;;;
2021/08/06 10:21:59;;;;;;;2.2;1.6;;;;;;;22.6;56.4;99960;;;;
2021/08/06 10:29:59;;;;;;;2.2;1.6;;;;;;;22.4;56.4;99960;;;;
2021/08/06 10:33:59;;;;;;;2.2;1.6;;;;;;;22.1;55.7;99970;;;;
2021/08/06 10:36:04;;;;;;;2.2;1.6;;;;;;;22.0;56.4;99970;;;;
2021/08/06 10:38:49;;;;;;;2.2;1.6;;;;;;;22.0;56.8;99960;;;;
2021/08/06 10:39:10;;;;;;;2.2;1.6;;;;;;;22.0;56.8;99960;;;;
2021/08/06 10:39:59;;;;;;;2.2;1.6;;;;;;;22.1;56.7;99970;;;;
2021/08/06 10:44:00;;;;;;;2.8;2.0;;;;;;;22.0;57.3;99970;;;;
2021/08/06 10:45:59;;;;;;;2.8;2.0;;;;;;;21.9;57.6;99970;;;;
2021/08/06 10:49:59;;;;;;;2.8;2.0;;;;;;;22.0;57.5;99970;;;;
2021/08/06 10:51:59;;;;;;;2.8;2.0;;;;;;;22.1;57.1;99970;;;;
2021/08/06 10:55:59;;;;;;;2.8;2.0;;;;;;;22.0;57.4;99970;;;;
2021/08/06 10:57:59;;;;;;;2.8;2.0;;;;;;;22.1;56.7;99950;;;;
2021/08/06 10:59:59;;;;;;;2.8;2.0;;;;;;;22.2;56.4;99960;;;;
2021/08/06 11:01:59;;;;;;;2.5;2.0;;;;;;;22.3;56.2;99960;;;;
2021/08/06 11:03:59;;;;;;;2.5;2.0;;;;;;;22.4;55.6;99960;;;;
2021/08/06 11:08:00;;;;;;;2.5;2.0;;;;;;;22.2;54.6;99970;;;;
2021/08/06 11:10:02;;;;;;;2.5;2.0;;;;;;;22.5;55.0;99960;;;;
2021/08/06 11:11:59;;;;;;;2.5;2.0;;;;;;;22.7;54.8;99950;;;;
2021/08/06 11:13:59;;;;;;;2.5;2.0;;;;;;;22.6;54.3;99950;;;;
2021/08/06 11:17:59;;;;;;;2.5;2.0;;;;;;;22.5;54.2;99960;;;;
2021/08/06 11:19:59;;;;;;;2.5;2.0;;;;;;;22.4;54.1;99960;;;;
2021/08/06 11:21:59;;;;;;;2.4;1.7;;;;;;;22.5;53.8;99960;;;;
2021/08/06 11:24:00;;;;;;;2.4;1.7;;;;;;;22.6;54.1;99950;;;;
2021/08/06 11:25:59;;;;;;;2.4;1.7;;;;;;;22.5;53.5;99950;;;;
2021/08/06 11:28:00;;;;;;;2.4;1.7;;;;;;;22.7;54.1;99950;;;;
2021/08/06 11:31:59;;;;;;;2.4;1.7;;;;;;;23.0;53.8;99960;;;;
2021/08/06 11:33:59;;;;;;;2.4;1.7;;;;;;;23.1;53.1;99950;;;;
2021/08/06 11:35:59;;;;;;;2.4;1.7;;;;;;;22.9;52.9;99950;;;;
2021/08/06 11:37:59;;;;;;;2.4;1.7;;;;;;;23.0;52.9;99950;;;;
2021/08/06 11:39:59;;;;;;;2.4;1.7;;;;;;;23.1;52.7;99960;;;;
2021/08/06 11:41:59;;;;;;;3.0;1.8;;;;;;;22.9;52.2;99960;;;;
2021/08/06 11:43:59;;;;;;;3.0;1.8;;;;;;;22.6;53.4;99970;;;;
2021/08/06 11:45:59;;;;;;;3.0;1.8;;;;;;;22.5;55.7;99980;;;;
2021/08/06 11:47:59;;;;;;;3.0;1.8;;;;;;;22.0;58.1;100000;;;;
2021/08/06 11:49:59;;;;;;;3.0;1.8;;;;;;;21.6;59.9;100010;;;;
2021/08/06 11:52:00;;;;;;;3.0;1.8;;;;;;;21.4;61.4;100020;;;;
2021/08/06 11:53:59;;;;;;;3.0;1.8;;;;;;;21.3;62.1;100010;;;;
2021/08/06 11:56:00;;;;;;;3.0;1.8;;;;;;;21.5;63.1;100000;;;;
2021/08/06 12:01:59;;;;;;;2.4;1.6;;;;;;;21.7;63.7;99990;;;;
2021/08/06 12:03:59;;;;;;;2.4;1.6;;;;;;;21.9;64.2;99980;;;;
2021/08/06 12:06:00;;;;;;;2.4;1.6;;;;;;;22.0;65.2;99990;;;;
2021/08/06 12:11:59;;;;;;;2.4;1.6;;;;;;;21.9;63.9;99980;;;;
2021/08/06 12:14:02;;;;;;;2.4;1.6;;;;;;;21.7;63.8;99980;;;;
2021/08/06 12:16:00;;;;;;;2.4;1.6;;;;;;;21.6;64.5;99980;;;;
2021/08/06 12:17:59;;;;;;;2.4;1.6;;;;;;;21.7;64.1;99980;;;;
2021/08/06 12:21:59;;;;;;;1.7;1.6;;;;;;;21.5;63.6;99980;;;;
2021/08/06 12:23:59;;;;;;;1.7;1.6;;;;;;;21.6;63.2;99980;;;;
2021/08/06 12:33:59;;;;;;;1.7;1.6;;;;;;;21.7;61.8;99970;;;;
2021/08/06 12:35:59;;;;;;;1.7;1.6;;;;;;;21.8;62.0;99970;;;;
2021/08/06 12:37:59;;;;;;;1.7;1.6;;;;;;;21.9;62.8;99980;;;;
2021/08/06 12:39:59;;;;;;;1.7;1.6;;;;;;;21.6;60.6;99970;;;;
2021/08/06 12:41:59;;;;;;;1.6;1.3;;;;;;;21.8;61.2;99970;;;;
2021/08/06 12:43:59;;;;;;;1.6;1.3;;;;;;;22.0;61.0;99970;;;;
2021/08/06 12:47:59;;;;;;;1.6;1.3;;;;;;;22.2;60.3;99960;;;;
2021/08/06 12:51:59;;;;;;;1.6;1.3;;;;;;;22.3;58.7;99960;;;;
2021/08/06 12:53:59;;;;;;;1.6;1.3;;;;;;;22.5;59.4;99960;;;;
2021/08/06 12:55:59;;;;;;;1.6;1.3;;;;;;;22.6;59.0;99960;;;;
2021/08/06 12:57:59;;;;;;;1.6;1.3;;;;;;;22.7;58.3;99970;;;;
2021/08/06 12:59:59;;;;;;;1.6;1.3;;;;;;;22.6;58.3;99970;;;;
2021/08/06 13:01:59;;;;;;;3.2;1.5;;;;;;;22.5;58.6;99970;;;;
2021/08/06 13:05:59;;;;;;;3.2;1.5;;;;;;;22.6;58.7;99960;;;;
2021/08/06 13:11:59;;;;;;;3.2;1.5;;;;;;;22.8;57.6;99960;;;;
2021/08/06 13:15:59;;;;;;;3.2;1.5;;;;;;;22.9;57.6;99960;;;;
2021/08/06 13:17:59;;;;;;;3.2;1.5;;;;;;;23.0;56.3;99950;;;;
2021/08/06 13:21:59;;;;;;;2.1;1.6;;;;;;;22.7;56.8;99960;;;;
2021/08/06 13:23:59;;;;;;;2.1;1.6;;;;;;;22.6;56.9;99970;;;;
2021/08/06 13:25:59;;;;;;;2.1;1.6;;;;;;;22.5;56.0;99960;;;;
2021/08/06 13:27:59;;;;;;;2.1;1.6;;;;;;;22.8;56.5;99960;;;;
2021/08/06 13:29:59;;;;;;;2.1;1.6;;;;;;;23.0;56.3;99960;;;;
2021/08/06 13:31:59;;;;;;;2.1;1.6;;;;;;;23.2;55.8;99960;;;;
2021/08/06 13:35:59;;;;;;;2.1;1.6;;;;;;;23.3;55.8;99980;;;;
2021/08/06 13:39:59;;;;;;;2.1;1.6;;;;;;;23.5;55.9;99970;;;;
2021/08/06 13:41:59;;;;;;;2.4;1.0;;;;;;;23.4;54.8;99980;;;;
2021/08/06 13:45:59;;;;;;;2.4;1.0;;;;;;;23.5;54.3;99970;;;;
2021/08/06 13:49:59;;;;;;;2.4;1.0;;;;;;;23.2;54.9;99980;;;;
2021/08/06 13:51:59;;;;;;;2.4;1.0;;;;;;;23.0;55.1;99980;;;;
2021/08/06 13:55:59;;;;;;;2.4;1.0;;;;;;;22.8;54.9;99980;;;;
2021/08/06 14:01:59;;;;;;;1.4;1.1;;;;;;;22.7;55.0;100000;;;;
2021/08/06 14:03:59;;;;;;;1.4;1.1;;;;;;;22.5;55.9;100000;;;;
2021/08/06 14:07:59;;;;;;;1.4;1.1;;;;;;;22.1;57.8;100030;;;;
2021/08/06 14:09:59;;;;;;;1.4;1.1;;;;;;;21.8;62.4;100040;;;;
2021/08/06 14:11:59;;;;;;;1.4;1.1;;;;;;;21.5;63.3;100040;;;;
2021/08/06 14:13:59;;;;;;;1.4;1.1;;;;;;;21.3;63.6;100040;;;;
2021/08/06 14:15:59;;;;;;;1.4;1.1;;;;;;;21.2;63.3;100040;;;;
2021/08/06 14:17:59;;;;;;;1.4;1.1;;;;;;;21.0;64.7;100040;;;;
2021/08/06 14:19:59;;;;;;;1.4;1.1;;;;;;;20.8;64.6;100030;;;;
2021/08/06 14:21:59;;;;;;;3.0;1.2;;;;;;;21.1;64.0;100030;;;;
2021/08/06 14:23:59;;;;;;;3.0;1.2;;;;;;;21.0;64.3;100040;;;;
2021/08/06 14:25:59;;;;;;;3.0;1.2;;;;;;;21.1;65.1;100030;;;;
2021/08/06 14:29:59;;;;;;;3.0;1.2;;;;;;;21.3;65.7;100030;;;;
2021/08/06 14:31:59;;;;;;;3.0;1.2;;;;;;;21.4;65.7;100030;;;;
2021/08/06 14:33:59;;;;;;;3.0;1.2;;;;;;;21.5;65.5;100040;;;;
2021/08/06 14:35:59;;;;;;;3.0;1.2;;;;;;;21.4;66.8;100030;;;;
2021/08/06 14:37:59;;;;;;;3.0;1.2;;;;;;;21.6;66.9;100030;;;;
2021/08/06 14:41:59;;;;;;;1.7;1.6;;;;;;;21.7;66.1;100020;;;;
2021/08/06 14:45:59;;;;;;;1.7;1.6;;;;;;;21.9;65.7;100020;;;;
2021/08/06 14:51:59;;;;;;;1.7;1.6;;;;;;;22.0;64.4;100020;;;;
2021/08/06 14:53:59;;;;;;;1.7;1.6;;;;;;;21.9;64.2;100020;;;;
2021/08/06 14:55:59;;;;;;;1.7;1.6;;;;;;;22.2;63.7;100020;;;;
2021/08/06 14:59:59;;;;;;;1.7;1.6;;;;;;;22.1;61.9;100020;;;;
2021/08/06 15:02:01;;;;;;;1.8;1.2;;;;;;;22.4;60.9;100020;;;;
2021/08/06 15:03:59;;;;;;;1.8;1.2;;;;;;;22.6;60.7;100020;;;;
2021/08/06 15:05:59;;;;;;;1.8;1.2;;;;;;;22.7;60.3;100010;;;;
2021/08/06 15:08:00;;;;;;;1.8;1.2;;;;;;;22.9;59.5;100020;;;;
2021/08/06 15:10:09;;;;;;;1.8;1.2;;;;;;;23.1;59.5;100020;;;;
2021/08/06 15:11:59;;;;;;;1.8;1.2;;;;;;;23.0;58.3;100010;;;;
2021/08/06 15:13:59;;;;;;;1.8;1.2;;;;;;;23.4;57.7;100020;;;;
2021/08/06 15:17:59;;;;;;;1.8;1.2;;;;;;;23.7;56.5;100010;;;;
2021/08/06 15:19:59;;;;;;;1.8;1.2;;;;;;;24.0;56.3;100020;;;;
2021/08/06 15:22:09;;;;;;;1.1;1.0;;;;;;;24.2;56.2;100020;;;;
2021/08/06 15:23:59;;;;;;;1.1;1.0;;;;;;;24.3;54.6;100020;;;;
2021/08/06 15:25:59;;;;;;;1.1;1.0;;;;;;;24.2;54.2;100010;;;;
2021/08/06 15:27:59;;;;;;;1.1;1.0;;;;;;;24.4;53.9;100010;;;;
2021/08/06 15:29:59;;;;;;;1.1;1.0;;;;;;;24.8;52.9;100010;;;;
2021/08/06 15:31:59;;;;;;;1.1;1.0;;;;;;;24.7;52.5;100010;;;;
2021/08/06 15:33:59;;;;;;;1.1;1.0;;;;;;;25.1;52.0;100010;;;;
2021/08/06 15:35:59;;;;;;;1.1;1.0;;;;;;;24.9;51.5;100010;;;;
2021/08/06 15:37:59;;;;;;;1.1;1.0;;;;;;;24.7;52.1;100010;;;;
2021/08/06 15:39:59;;;;;;;1.1;1.0;;;;;;;24.5;51.9;100010;;;;
2021/08/06 15:41:59;;;;;;;1.3;0.9;;;;;;;24.3;51.4;100010;;;;
2021/08/06 15:44:02;;;;;;;1.3;0.9;;;;;;;24.2;51.5;100020;;;;
2021/08/06 15:47:59;;;;;;;1.3;0.9;;;;;;;23.6;53.2;100030;;;;
2021/08/06 15:49:59;;;;;;;1.3;0.9;;;;;;;23.8;54.0;100030;;;;
2021/08/06 15:51:59;;;;;;;1.3;0.9;;;;;;;24.2;53.7;100040;;;;
2021/08/06 15:53:59;;;;;;;1.3;0.9;;;;;;;24.4;53.5;100030;;;;
2021/08/06 15:57:59;;;;;;;1.3;0.9;;;;;;;24.7;52.2;100020;;;;
2021/08/06 15:59:59;;;;;;;1.3;0.9;;;;;;;24.9;52.1;100010;;;;
2021/08/06 16:01:59;;;;;;;2.3;1.4;;;;;;;25.2;52.7;100020;;;;
2021/08/06 16:04:03;;;;;;;2.3;1.4;;;;;;;25.6;51.7;100020;;;;
2021/08/06 16:05:59;;;;;;;2.3;1.4;;;;;;;25.5;50.8;100020;;;;
2021/08/06 16:09:59;;;;;;;2.3;1.4;;;;;;;26.1;50.5;100030;;;;
2021/08/06 16:11:59;;;;;;;2.3;1.4;;;;;;;26.0;49.6;100030;;;;
2021/08/06 16:13:59;;;;;;;2.3;1.4;;;;;;;25.8;49.8;100030;;;;
2021/08/06 16:15:59;;;;;;;2.3;1.4;;;;;;;25.9;49.7;100030;;;;
2021/08/06 16:17:59;;;;;;;2.3;1.4;;;;;;;26.1;50.0;100040;;;;
2021/08/06 16:19:59;;;;;;;2.3;1.4;;;;;;;25.9;50.0;100040;;;;
2021/08/06 16:21:59;;;;;;;2.0;1.5;;;;;;;26.0;50.1;100040;;;;
2021/08/06 16:25:59;;;;;;;2.0;1.5;;;;;;;25.6;49.8;100040;;;;
2021/08/06 16:28:09;;;;;;;2.0;1.5;;;;;;;25.5;50.1;100040;;;;
2021/08/06 16:29:59;;;;;;;2.0;1.5;;;;;;;25.1;50.2;100040;;;;
2021/08/06 16:32:00;;;;;;;2.0;1.5;;;;;;;25.4;50.3;100030;;;;
2021/08/06 16:33:59;;;;;;;2.0;1.5;;;;;;;24.9;51.4;100030;;;;
2021/08/06 16:36:00;;;;;;;2.0;1.5;;;;;;;25.3;50.4;100030;;;;
2021/08/06 16:38:02;;;;;;;2.0;1.5;;;;;;;25.1;50.1;100030;;;;
2021/08/06 16:39:59;;;;;;;2.0;1.5;;;;;;;25.5;50.1;100030;;;;
2021/08/06 16:41:59;;;;;;;1.7;1.1;;;;;;;25.6;49.0;100040;;;;
2021/08/06 16:43:59;;;;;;;1.7;1.1;;;;;;;25.4;49.9;100040;;;;
2021/08/06 16:45:59;;;;;;;1.7;1.1;;;;;;;25.6;48.9;100030;;;;
2021/08/06 16:47:59;;;;;;;1.7;1.1;;;;;;;25.9;48.9;100040;;;;
2021/08/06 16:49:59;;;;;;;1.7;1.1;;;;;;;25.8;48.2;100030;;;;
2021/08/06 16:51:59;;;;;;;1.7;1.1;;;;;;;25.7;48.3;100030;;;;
2021/08/06 16:53:59;;;;;;;1.7;1.1;;;;;;;25.9;47.8;100030;;;;
2021/08/06 16:55:59;;;;;;;1.7;1.1;;;;;;;25.8;48.9;100030;;;;
2021/08/06 16:57:59;;;;;;;1.7;1.1;;;;;;;25.7;49.0;100030;;;;
2021/08/06 17:01:59;;;;;;;1.8;1.3;;;;;;;25.9;47.6;100030;;;;
2021/08/06 17:03:59;;;;;;;1.8;1.3;;;;;;;26.0;47.6;100030;;;;
2021/08/06 17:05:59;;;;;;;1.8;1.3;;;;;;;25.9;47.4;100030;;;;
2021/08/06 17:07:59;;;;;;;1.8;1.3;;;;;;;26.0;46.5;100030;;;;
2021/08/06 17:09:59;;;;;;;1.8;1.3;;;;;;;25.8;46.1;100030;;;;
2021/08/06 17:11:59;;;;;;;1.8;1.3;;;;;;;26.1;46.2;100030;;;;
2021/08/06 17:13:59;;;;;;;1.8;1.3;;;;;;;26.0;45.9;100040;;;;
2021/08/06 17:15:59;;;;;;;1.8;1.3;;;;;;;25.7;45.5;100030;;;;
2021/08/06 17:18:00;;;;;;;1.8;1.3;;;;;;;25.5;45.8;100030;;;;
2021/08/06 17:19:59;;;;;;;1.8;1.3;;;;;;;25.4;45.4;100040;;;;
2021/08/06 17:21:59;;;;;;;3.1;1.2;;;;;;;25.5;44.9;100040;;;;
2021/08/06 17:23:59;;;;;;;3.1;1.2;;;;;;;25.7;44.3;100040;;;;
2021/08/06 17:25:59;;;;;;;3.1;1.2;;;;;;;25.9;44.9;100040;;;;
2021/08/06 17:27:59;;;;;;;3.1;1.2;;;;;;;26.1;43.8;100040;;;;
2021/08/06 17:29:59;;;;;;;3.1;1.2;;;;;;;25.6;44.1;100040;;;;
2021/08/06 17:31:59;;;;;;;3.1;1.2;;;;;;;25.4;45.2;100040;;;;
2021/08/06 17:35:59;;;;;;;3.1;1.2;;;;;;;25.1;45.2;100050;;;;
2021/08/06 17:37:59;;;;;;;3.1;1.2;;;;;;;25.4;45.9;100050;;;;
2021/08/06 17:39:59;;;;;;;3.1;1.2;;;;;;;25.5;44.9;100050;;;;
2021/08/06 17:41:59;;;;;;;2.4;1.2;;;;;;;25.4;44.8;100050;;;;
2021/08/06 17:43:59;;;;;;;2.4;1.2;;;;;;;25.2;45.5;100040;;;;
2021/08/06 17:45:59;;;;;;;2.4;1.2;;;;;;;25.1;45.1;100050;;;;
2021/08/06 17:49:59;;;;;;;2.4;1.2;;;;;;;25.0;46.6;100050;;;;
2021/08/06 17:51:59;;;;;;;2.4;1.2;;;;;;;24.8;46.7;100050;;;;
2021/08/06 17:53:59;;;;;;;2.4;1.2;;;;;;;24.6;47.3;100060;;;;
2021/08/06 17:56:00;;;;;;;2.4;1.2;;;;;;;24.0;49.0;100060;;;;
2021/08/06 17:57:59;;;;;;;2.4;1.2;;;;;;;23.7;49.0;100050;;;;
2021/08/06 17:59:59;;;;;;;2.4;1.2;;;;;;;23.9;49.1;100060;;;;
2021/08/06 18:01:59;;;;;;;2.0;1.3;;;;;;;24.0;48.5;100060;;;;
2021/08/06 18:03:59;;;;;;;2.0;1.3;;;;;;;23.7;49.7;100060;;;;
2021/08/06 18:07:59;;;;;;;2.0;1.3;;;;;;;23.5;49.2;100060;;;;
2021/08/06 18:09:59;;;;;;;2.0;1.3;;;;;;;23.2;50.1;100060;;;;
2021/08/06 18:11:59;;;;;;;2.0;1.3;;;;;;;23.4;49.8;100060;;;;
2021/08/06 18:13:59;;;;;;;2.0;1.3;;;;;;;23.3;49.6;100060;;;;
2021/08/06 18:15:59;;;;;;;2.0;1.3;;;;;;;23.0;50.1;100060;;;;
2021/08/06 18:19:59;;;;;;;2.0;1.3;;;;;;;22.8;51.0;100070;;;;
2021/08/06 18:21:59;;;;;;;2.5;1.3;;;;;;;22.9;51.2;100070;;;;
2021/08/06 18:23:59;;;;;;;2.5;1.3;;;;;;;22.8;50.5;100070;;;;
2021/08/06 18:25:59;;;;;;;2.5;1.3;;;;;;;22.7;51.5;100070;;;;
2021/08/06 18:27:59;;;;;;;2.5;1.3;;;;;;;22.8;51.4;100070;;;;
2021/08/06 18:29:59;;;;;;;2.5;1.3;;;;;;;22.5;52.5;100080;;;;
2021/08/06 18:32:00;;;;;;;2.5;1.3;;;;;;;22.6;52.3;100080;;;;
2021/08/06 18:33:59;;;;;;;2.5;1.3;;;;;;;22.5;52.9;100080;;;;
2021/08/06 18:35:59;;;;;;;2.5;1.3;;;;;;;22.6;52.6;100080;;;;
2021/08/06 18:37:59;;;;;;;2.5;1.3;;;;;;;22.5;53.1;100080;;;;
2021/08/06 18:39:59;;;;;;;2.5;1.3;;;;;;;22.4;53.5;100080;;;;
2021/08/06 18:41:59;;;;;;;2.2;1.5;;;;;;;22.6;53.3;100080;;;;
2021/08/06 18:43:59;;;;;;;2.2;1.5;;;;;;;22.2;54.3;100080;;;;